| time (UTC) | temp C | wind direction | speed KPH | gust KPH | rain 1hr cm | rain 24hr cm | rain mn cm | humidity % | barometer mb |
| 20260509233804 | 17 | 229 | 19.3 | 32.2 | 0.03 | 0.76 | 0.10 | 32 | 1006.9 |
| 20260509232804 | 17 | 226 | 11.3 | 20.9 | 0.03 | 0.76 | 0.10 | 26 | 1007.0 |
| 20260509231304 | 16 | 230 | 14.5 | 32.2 | 0.03 | 0.76 | 0.10 | 19 | 1007.0 |
| 20260509230304 | 16 | 237 | 4.8 | 14.5 | 0.00 | 0.74 | 0.08 | 23 | 1007.0 |
| 20260509225804 | 16 | 225 | 8.0 | 25.7 | 0.00 | 0.74 | 0.08 | 25 | 1007.0 |
| 20260509225306 | 16 | 220 | 6.4 | 27.4 | 0.00 | 0.74 | 0.08 | 31 | 1007.0 |
| 20260509224804 | 16 | 207 | 6.4 | 19.3 | 0.00 | 0.74 | 0.08 | 27 | 1007.0 |
| 20260509222306 | 16 | 231 | 14.5 | 24.1 | 0.00 | 0.74 | 0.08 | 6 | 1007.0 |
| 20260509221803 | 16 | 232 | 9.7 | 22.5 | 0.00 | 0.74 | 0.08 | 4 | 1007.0 |
| 20260509215804 | 16 | 218 | 4.8 | 20.9 | 0.00 | 0.84 | 0.08 | 4 | 1006.7 |
| 20260509215306 | 16 | 207 | 9.7 | 24.1 | 0.00 | 0.84 | 0.08 | 4 | 1006.7 |
| 20260509214804 | 16 | 214 | 8.0 | 19.3 | 0.00 | 0.84 | 0.08 | 4 | 1006.8 |
| 20260509214303 | 16 | 217 | 8.0 | 16.1 | 0.00 | 0.84 | 0.08 | 4 | 1006.9 |
| 20260509213804 | 16 | 232 | 8.0 | 19.3 | 0.00 | 0.84 | 0.08 | 4 | 1006.9 |
| 20260509212804 | 16 | 230 | 3.2 | 19.3 | 0.00 | 0.84 | 0.08 | 4 | 1006.8 |
| 20260509211804 | 15 | 242 | 6.4 | 16.1 | 0.00 | 0.84 | 0.08 | 4 | 1006.8 |
| 20260509211304 | 15 | 249 | 8.0 | 24.1 | 0.00 | 0.84 | 0.08 | 4 | 1006.8 |
| 20260509205306 | 15 | 230 | 11.3 | 22.5 | 0.00 | 0.84 | 0.08 | 4 | 1006.6 |
| 20260509204304 | 15 | 233 | 11.3 | 19.3 | 0.00 | 0.84 | 0.08 | 4 | 1006.7 |
| 20260509203304 | 15 | 235 | 4.8 | 14.5 | 0.00 | 0.84 | 0.08 | 4 | 1006.6 |
| 20260509202804 | 15 | 268 | 3.2 | 4.8 | 0.00 | 0.84 | 0.08 | 4 | 1006.6 |
| 20260509201803 | 14 | 251 | 3.2 | 9.7 | 0.00 | 0.84 | 0.08 | 4 | 1006.4 |
| 20260509201304 | 13 | 243 | 3.2 | 14.5 | 0.00 | 0.84 | 0.08 | 4 | 1006.4 |
| 20260509200803 | 13 | 266 | 3.2 | 8.0 | 0.00 | 0.84 | 0.08 | 4 | 1006.3 |
| 20260509195804 | 13 | 233 | 4.8 | 9.7 | 0.00 | 0.84 | 0.08 | 4 | 1006.2 |
| 20260509194804 | 12 | 262 | 1.6 | 4.8 | 0.00 | 0.84 | 0.08 | 4 | 1006.2 |
| 20260509194304 | 12 | 256 | 4.8 | 9.7 | 0.00 | 0.84 | 0.08 | 4 | 1006.2 |
| 20260509193304 | 12 | 236 | 3.2 | 11.3 | 0.00 | 0.84 | 0.08 | 4 | 1006.1 |
| 20260509191804 | 12 | 272 | 1.6 | 4.8 | 0.00 | 0.84 | 0.08 | 4 | 1006.1 |
| 20260509191303 | 12 | 241 | 3.2 | 4.8 | 0.00 | 0.84 | 0.08 | 4 | 1006.0 |
| 20260509185306 | 13 | 241 | 4.8 | 11.3 | 0.00 | 0.86 | 0.08 | 4 | 1005.9 |
| 20260509184804 | 13 | 242 | 4.8 | 9.7 | 0.00 | 0.86 | 0.08 | 4 | 1006.0 |
| 20260509182803 | 13 | 232 | 4.8 | 12.9 | 0.00 | 0.86 | 0.08 | 4 | 1005.9 |
| 20260509181803 | 13 | 233 | 3.2 | 12.9 | 0.00 | 0.89 | 0.08 | 4 | 1005.8 |
| 20260509180805 | 13 | 242 | 4.8 | 16.1 | 0.00 | 0.89 | 0.08 | 4 | 1005.9 |
| 20260509175803 | 13 | 253 | 3.2 | 9.7 | 0.00 | 0.89 | 0.08 | 4 | 1005.6 |
| 20260509175306 | 13 | 248 | 4.8 | 11.3 | 0.00 | 0.89 | 0.08 | 4 | 1005.6 |
| 20260509173803 | 13 | 247 | 4.8 | 12.9 | 0.00 | 0.89 | 0.08 | 4 | 1005.5 |
| 20260509173304 | 13 | 232 | 4.8 | 11.3 | 0.00 | 0.89 | 0.08 | 4 | 1005.5 |
| 20260509172804 | 13 | 239 | 4.8 | 11.3 | 0.00 | 0.89 | 0.08 | 4 | 1005.4 |
| 20260509172306 | 13 | 239 | 3.2 | 9.7 | 0.00 | 0.89 | 0.08 | 4 | 1005.4 |
| 20260509171804 | 13 | 227 | 4.8 | 12.9 | 0.00 | 0.89 | 0.08 | 4 | 1005.4 |
| 20260509171304 | 13 | 221 | 6.4 | 12.9 | 0.00 | 0.89 | 0.08 | 4 | 1005.3 |
| 20260509170804 | 13 | 230 | 3.2 | 12.9 | 0.00 | 0.89 | 0.08 | 4 | 1005.3 |
| 20260509170303 | 13 | 234 | 3.2 | 8.0 | 0.00 | 0.89 | 0.08 | 4 | 1005.3 |
| 20260509165804 | 13 | 207 | 1.6 | 9.7 | 0.00 | 0.89 | 0.08 | 4 | 1005.2 |
| 20260509165306 | 12 | 239 | 4.8 | 11.3 | 0.00 | 0.89 | 0.08 | 4 | 1005.2 |
| 20260509164804 | 12 | 240 | 4.8 | 12.9 | 0.00 | 0.89 | 0.08 | 4 | 1005.2 |
| 20260509164304 | 12 | 244 | 4.8 | 11.3 | 0.00 | 0.89 | 0.08 | 4 | 1005.2 |
| 20260509163803 | 12 | 247 | 1.6 | 8.0 | 0.00 | 0.89 | 0.08 | 4 | 1005.2 |
| 20260509162804 | 12 | 234 | 3.2 | 8.0 | 0.00 | 0.89 | 0.08 | 4 | 1005.1 |
| 20260509162307 | 12 | 232 | 4.8 | 12.9 | 0.00 | 0.89 | 0.08 | 4 | 1005.2 |
| 20260509161305 | 12 | 228 | 3.2 | 9.7 | 0.00 | 0.89 | 0.08 | 4 | 1005.3 |
| 20260509154806 | 12 | 234 | 3.2 | 4.8 | 0.00 | 0.89 | 0.08 | 4 | 1005.1 |
| 20260509154304 | 12 | 242 | 3.2 | 8.0 | 0.00 | 0.89 | 0.08 | 4 | 1005.2 |
| 20260509153805 | 12 | 248 | 3.2 | 8.0 | 0.00 | 0.89 | 0.08 | 4 | 1005.3 |
| 20260509153304 | 12 | 213 | 1.6 | 4.8 | 0.00 | 0.89 | 0.08 | 4 | 1005.3 |
| 20260509152807 | 12 | 237 | 1.6 | 4.8 | 0.00 | 0.89 | 0.08 | 4 | 1005.3 |
| 20260509152306 | 12 | 238 | 3.2 | 4.8 | 0.00 | 0.89 | 0.08 | 4 | 1005.4 |
| 20260509151805 | 12 | 234 | 1.6 | 8.0 | 0.03 | 0.89 | 0.08 | 4 | 1005.4 |
| 20260509144304 | 12 | 222 | 3.2 | 4.8 | 0.03 | 0.89 | 0.08 | 4 | 1005.5 |
| 20260509142307 | 12 | 228 | 4.8 | 9.7 | 0.03 | 0.89 | 0.08 | 4 | 1005.6 |
| 20260509140805 | 12 | 227 | 1.6 | 8.0 | 0.00 | 0.89 | 0.05 | 4 | 1005.6 |
| 20260509140304 | 12 | 235 | 3.2 | 8.0 | 0.00 | 0.89 | 0.05 | 4 | 1005.6 |
| 20260509135306 | 12 | 229 | 3.2 | 4.8 | 0.00 | 0.89 | 0.05 | 4 | 1005.6 |
| 20260509133305 | 12 | 248 | 0.0 | 0.0 | 0.00 | 0.89 | 0.05 | 4 | 1005.6 |
| 20260509132306 | 12 | 251 | 0.0 | 0.0 | 0.00 | 0.89 | 0.05 | 4 | 1005.5 |
| 20260509131806 | 12 | 252 | 0.0 | 0.0 | 0.00 | 0.89 | 0.05 | 4 | 1005.4 |
| 20260509130304 | 12 | 249 | 0.0 | 1.6 | 0.05 | 0.89 | 0.05 | 4 | 1005.4 |
| 20260509125807 | 12 | 214 | 0.0 | 1.6 | 0.05 | 0.94 | 0.05 | 4 | 1005.4 |
| 20260509124304 | 13 | 247 | 0.0 | 3.2 | 0.08 | 0.94 | 0.05 | 4 | 1005.6 |
| 20260509123305 | 13 | 233 | 3.2 | 8.0 | 0.08 | 1.09 | 0.05 | 4 | 1005.7 |
| 20260509122806 | 13 | 242 | 1.6 | 8.0 | 0.08 | 1.14 | 0.05 | 4 | 1005.7 |
| 20260509122306 | 13 | 259 | 3.2 | 4.8 | 0.08 | 1.14 | 0.05 | 4 | 1005.8 |
| 20260509121807 | 13 | 256 | 3.2 | 8.0 | 0.10 | 1.14 | 0.05 | 4 | 1005.8 |
| 20260509120822 | 13 | 169 | 1.6 | 8.0 | 0.20 | 1.12 | 0.03 | 4 | 1006.0 |
| 20260509115307 | 13 | 273 | 0.0 | 1.6 | 0.23 | 1.09 | 1.09 | 4 | 1006.0 |
| 20260509113804 | 13 | 257 | 1.6 | 4.8 | 0.23 | 1.09 | 1.09 | 4 | 1006.1 |
| 20260509112805 | 13 | 236 | 3.2 | 9.7 | 0.23 | 1.17 | 1.09 | 4 | 1006.1 |
| 20260509112307 | 13 | 270 | 3.2 | 4.8 | 0.23 | 1.27 | 1.09 | 4 | 1006.2 |
| 20260509111307 | 13 | 267 | 3.2 | 9.7 | 0.15 | 1.24 | 0.99 | 4 | 1006.2 |
| 20260509105306 | 13 | 244 | 4.8 | 8.0 | 0.03 | 1.09 | 0.86 | 4 | 1006.1 |
| 20260509104805 | 13 | 253 | 3.2 | 4.8 | 0.03 | 1.09 | 0.86 | 4 | 1005.8 |
| 20260509104305 | 13 | 242 | 3.2 | 4.8 | 0.03 | 1.09 | 0.86 | 4 | 1005.7 |
| 20260509102804 | 13 | 246 | 3.2 | 4.8 | 0.03 | 1.09 | 0.86 | 4 | 1005.5 |
| 20260509102306 | 13 | 252 | 3.2 | 8.0 | 0.03 | 1.09 | 0.86 | 4 | 1005.6 |
| 20260509101805 | 13 | 264 | 4.8 | 11.3 | 0.03 | 1.09 | 0.86 | 4 | 1005.9 |
| 20260509100806 | 13 | 278 | 1.6 | 4.8 | 0.00 | 1.09 | 0.84 | 4 | 1005.7 |
| 20260509095804 | 13 | 277 | 4.8 | 9.7 | 0.00 | 1.09 | 0.84 | 4 | 1005.8 |
| 20260509094805 | 13 | 258 | 3.2 | 4.8 | 0.00 | 1.09 | 0.84 | 4 | 1005.6 |
| 20260509094305 | 13 | 265 | 3.2 | 8.0 | 0.00 | 1.09 | 0.84 | 4 | 1005.6 |
| 20260509093305 | 13 | 268 | 1.6 | 4.8 | 0.03 | 1.12 | 0.84 | 4 | 1005.6 |
| 20260509092805 | 13 | 276 | 3.2 | 9.7 | 0.03 | 1.12 | 0.84 | 4 | 1005.5 |
| 20260509092306 | 13 | 264 | 4.8 | 9.7 | 0.03 | 1.14 | 0.84 | 4 | 1005.6 |
| 20260509091805 | 13 | 267 | 6.4 | 12.9 | 0.03 | 1.14 | 0.84 | 4 | 1005.6 |
| 20260509090805 | 13 | 274 | 8.0 | 16.1 | 0.03 | 1.19 | 0.84 | 4 | 1005.7 |
| 20260509090305 | 13 | 281 | 6.4 | 12.9 | 0.03 | 1.19 | 0.84 | 4 | 1005.8 |
| 20260509085805 | 13 | 280 | 4.8 | 11.3 | 0.05 | 1.19 | 0.84 | 4 | 1006.0 |
| 20260509085306 | 13 | 286 | 3.2 | 16.1 | 0.05 | 1.19 | 0.84 | 4 | 1006.0 |
| 20260509084805 | 13 | 259 | 4.8 | 8.0 | 0.05 | 1.19 | 0.84 | 4 | 1006.0 |
| 20260509083304 | 13 | 270 | 6.4 | 12.9 | 0.03 | 1.17 | 0.81 | 4 | 1006.0 |
| 20260509081306 | 13 | 275 | 4.8 | 8.0 | 0.13 | 1.17 | 0.81 | 4 | 1006.0 |
| 20260509074805 | 13 | 258 | 6.4 | 12.9 | 0.25 | 1.24 | 0.79 | 4 | 1005.9 |
| 20260509074305 | 14 | 253 | 6.4 | 19.3 | 0.25 | 1.24 | 0.79 | 4 | 1005.8 |
| 20260509073304 | 14 | 274 | 8.0 | 11.3 | 0.25 | 1.27 | 0.79 | 4 | 1005.9 |
| 20260509072804 | 15 | 260 | 9.7 | 19.3 | 0.23 | 1.27 | 0.79 | 4 | 1005.9 |
| 20260509070305 | 15 | 285 | 4.8 | 16.1 | 0.13 | 1.09 | 0.61 | 4 | 1005.4 |
| 20260509065306 | 16 | 261 | 4.8 | 9.7 | 0.05 | 1.04 | 0.56 | 4 | 1005.4 |
| 20260509064805 | 16 | 272 | 4.8 | 8.0 | 0.05 | 1.02 | 0.53 | 4 | 1005.4 |
| 20260509064305 | 16 | 282 | 3.2 | 8.0 | 0.05 | 1.02 | 0.53 | 4 | 1005.3 |
| 20260509062804 | 16 | 276 | 1.6 | 4.8 | 0.05 | 1.04 | 0.53 | 4 | 1005.4 |
| 20260509061805 | 16 | 265 | 8.0 | 14.5 | 0.03 | 0.99 | 0.51 | 4 | 1005.2 |
| 20260509061307 | 16 | 244 | 4.8 | 12.9 | 0.03 | 1.02 | 0.51 | 4 | 1005.0 |
| 20260509060805 | 16 | 263 | 4.8 | 12.9 | 0.03 | 1.02 | 0.51 | 4 | 1005.0 |
| 20260509060304 | 16 | 258 | 6.4 | 9.7 | 0.03 | 1.02 | 0.51 | 4 | 1005.0 |
| 20260509055805 | 16 | 264 | 8.0 | 14.5 | 0.03 | 1.02 | 0.51 | 4 | 1005.0 |
| 20260509055306 | 16 | 275 | 4.8 | 9.7 | 0.03 | 1.04 | 0.51 | 4 | 1005.1 |
| 20260509054805 | 16 | 265 | 8.0 | 11.3 | 0.03 | 1.04 | 0.51 | 4 | 1005.2 |
| 20260509054304 | 16 | 245 | 8.0 | 19.3 | 0.03 | 1.04 | 0.51 | 4 | 1005.1 |
| 20260509053304 | 16 | 261 | 4.8 | 12.9 | 0.00 | 1.02 | 0.48 | 4 | 1004.9 |
| 20260509052805 | 16 | 256 | 6.4 | 11.3 | 0.00 | 1.02 | 0.48 | 4 | 1004.9 |
| 20260509051806 | 17 | 265 | 8.0 | 12.9 | 0.00 | 1.02 | 0.48 | 4 | 1004.8 |
| 20260509051306 | 17 | 267 | 4.8 | 9.7 | 0.00 | 1.02 | 0.48 | 4 | 1004.9 |
| 20260509050305 | 17 | 280 | 8.0 | 12.9 | 0.00 | 1.02 | 0.48 | 4 | 1004.9 |
| 20260509045807 | 17 | 275 | 4.8 | 12.9 | 0.00 | 1.02 | 0.48 | 4 | 1004.9 |
| 20260509044805 | 17 | 275 | 4.8 | 11.3 | 0.00 | 1.02 | 0.48 | 4 | 1004.9 |
| 20260509043807 | 17 | 260 | 8.0 | 9.7 | 0.00 | 1.02 | 0.48 | 4 | 1004.9 |
| 20260509043305 | 17 | 257 | 8.0 | 14.5 | 0.00 | 1.02 | 0.48 | 4 | 1004.9 |
| 20260509041805 | 17 | 272 | 4.8 | 8.0 | 0.00 | 1.02 | 0.48 | 4 | 1004.9 |
| 20260509040304 | 17 | 265 | 4.8 | 9.7 | 0.00 | 1.02 | 0.48 | 4 | 1005.1 |
| 20260509035804 | 17 | 258 | 4.8 | 16.1 | 0.00 | 1.02 | 0.48 | 4 | 1005.1 |
| 20260509034804 | 18 | 251 | 8.0 | 22.5 | 0.00 | 1.02 | 0.48 | 4 | 1005.3 |
| 20260509034304 | 18 | 267 | 8.0 | 14.5 | 0.00 | 1.02 | 0.48 | 4 | 1005.3 |
| 20260509033304 | 18 | 257 | 4.8 | 20.9 | 0.00 | 1.02 | 0.48 | 4 | 1005.6 |
| 20260509032804 | 18 | 255 | 4.8 | 16.1 | 0.00 | 1.02 | 0.48 | 4 | 1005.8 |
| 20260509032306 | 18 | 244 | 9.7 | 19.3 | 0.00 | 1.02 | 0.48 | 4 | 1005.8 |
| 20260509031303 | 18 | 241 | 3.2 | 14.5 | 0.00 | 1.02 | 0.48 | 4 | 1005.9 |
| 20260509030304 | 18 | 258 | 9.7 | 19.3 | 0.00 | 1.02 | 0.48 | 4 | 1005.9 |
| 20260509025804 | 18 | 253 | 9.7 | 19.3 | 0.00 | 1.02 | 0.48 | 4 | 1005.8 |
| 20260509022307 | 19 | 247 | 8.0 | 16.1 | 0.00 | 1.02 | 0.48 | 45 | 1005.4 |
| 20260509021305 | 20 | 250 | 11.3 | 24.1 | 0.00 | 1.02 | 0.48 | 42 | 1005.6 |
| 20260509020807 | 20 | 266 | 8.0 | 20.9 | 0.00 | 1.02 | 0.48 | 33 | 1005.6 |
| 20260509020307 | 20 | 263 | 11.3 | 19.3 | 0.00 | 1.02 | 0.48 | 24 | 1005.6 |
| 20260509015307 | 19 | 242 | 11.3 | 24.1 | 0.00 | 1.02 | 0.48 | 4 | 1005.6 |
| 20260509013804 | 19 | 283 | 8.0 | 12.9 | 0.00 | 1.02 | 0.48 | 4 | 1005.6 |
| 20260509013305 | 19 | 254 | 11.3 | 22.5 | 0.03 | 1.02 | 0.48 | 4 | 1005.6 |
| 20260509012806 | 19 | 252 | 11.3 | 19.3 | 0.03 | 1.02 | 0.48 | 4 | 1005.7 |
| 20260509011304 | 18 | 267 | 6.4 | 14.5 | 0.03 | 1.02 | 0.48 | 4 | 1005.9 |
| 20260509010805 | 18 | 254 | 8.0 | 19.3 | 0.03 | 1.02 | 0.48 | 4 | 1006.0 |
| 20260509004307 | 16 | 262 | 9.7 | 19.3 | 0.05 | 1.02 | 0.48 | 4 | 1006.7 |
| 20260509003805 | 17 | 258 | 9.7 | 19.3 | 0.05 | 1.02 | 0.48 | 4 | 1006.8 |
| 20260509000305 | 18 | 277 | 9.7 | 19.3 | 0.03 | 0.99 | 0.46 | 4 | 1007.3 |
| 20260508235804 | 18 | 266 | 6.4 | 14.5 | 0.00 | 0.99 | 0.43 | 4 | 1007.4 |